Time;durP1;ratioP1;P1;durP2;ratioP2;P2;SDS_P1;SDS_P2;PMS_P1;PMS_P2;Temp;Humidity;BMP_temperature;BMP_pressure;BME280_temperature;BME280_humidity;BME280_pressure;Samples;Min_cycle;Max_cycle;Signal;HPM_P1;HPM_P2
2023/05/01 00:01:44;;;;;;;4.50;3.20;;;9.00;99.90;;;;;;514044;231;28424;-72
2023/05/01 00:03:45;;;;;;;5.00;4.40;;;9.00;99.90;;;;;;514089;231;28397;-73
2023/05/01 00:05:47;;;;;;;3.77;3.43;;;9.00;99.90;;;;;;514020;231;28145;-72
2023/05/01 00:07:48;;;;;;;3.80;3.40;;;9.00;99.90;;;;;;514041;231;28287;-72
2023/05/01 00:09:49;;;;;;;3.70;3.43;;;8.90;99.90;;;;;;514039;231;27836;-73
2023/05/01 00:11:50;;;;;;;4.30;3.90;;;8.90;99.90;;;;;;514027;231;27828;-72
2023/05/01 00:13:53;;;;;;;3.30;3.00;;;8.90;99.90;;;;;;514050;231;27841;-73
2023/05/01 00:15:54;;;;;;;4.20;3.90;;;8.90;99.90;;;;;;513898;231;27795;-72
2023/05/01 00:17:54;;;;;;;3.80;3.43;;;8.90;99.90;;;;;;513985;231;27486;-72
2023/05/01 00:19:55;;;;;;;3.70;3.40;;;8.80;99.90;;;;;;514063;231;27936;-72
2023/05/01 00:21:56;;;;;;;3.47;3.17;;;8.80;99.90;;;;;;514033;231;27914;-73
2023/05/01 00:23:58;;;;;;;3.93;3.60;;;8.80;99.90;;;;;;514070;231;27892;-72
2023/05/01 00:25:59;;;;;;;3.60;3.30;;;8.80;99.90;;;;;;514004;231;27787;-73
2023/05/01 00:28:00;;;;;;;4.10;3.70;;;8.80;99.90;;;;;;514039;231;27823;-73
2023/05/01 00:30:02;;;;;;;3.43;3.13;;;8.70;99.90;;;;;;514044;231;27776;-73
2023/05/01 00:32:04;;;;;;;4.93;3.70;;;8.70;99.90;;;;;;514049;231;27821;-72
2023/05/01 00:34:05;;;;;;;4.20;3.60;;;8.70;99.90;;;;;;513971;231;27500;-73
2023/05/01 00:36:05;;;;;;;4.93;3.30;;;8.70;99.90;;;;;;514000;231;28341;-73
2023/05/01 00:38:06;;;;;;;3.77;3.47;;;8.70;99.90;;;;;;514026;231;27967;-72
2023/05/01 00:40:08;;;;;;;7.03;3.93;;;8.70;99.90;;;;;;514052;231;28443;-72
2023/05/01 00:42:09;;;;;;;6.60;3.60;;;8.60;99.90;;;;;;514027;231;28549;-72
2023/05/01 00:44:10;;;;;;;6.00;3.40;;;8.70;99.90;;;;;;514033;231;28300;-73
2023/05/01 00:46:12;;;;;;;4.90;4.47;;;8.60;99.90;;;;;;514016;231;28247;-72
2023/05/01 00:48:13;;;;;;;6.03;4.70;;;8.50;99.90;;;;;;514022;231;27941;-73
2023/05/01 00:50:14;;;;;;;7.00;5.10;;;8.40;99.90;;;;;;514028;231;27791;-72
2023/05/01 00:52:15;;;;;;;5.20;4.70;;;8.50;99.90;;;;;;514014;231;27693;-73
2023/05/01 00:54:16;;;;;;;5.77;4.70;;;8.50;99.90;;;;;;514004;231;27839;-73
2023/05/01 00:56:18;;;;;;;7.33;5.30;;;8.50;99.90;;;;;;514015;231;27775;-73
2023/05/01 00:58:19;;;;;;;7.40;4.47;;;8.50;99.90;;;;;;514015;231;28023;-72
2023/05/01 01:00:23;;;;;;;4.57;4.17;;;8.50;99.90;;;;;;514028;231;27711;-72
2023/05/01 01:02:21;;;;;;;4.33;3.93;;;8.50;99.90;;;;;;513873;231;27524;-72
2023/05/01 01:04:23;;;;;;;4.07;3.67;;;8.40;99.90;;;;;;513960;231;27815;-72
2023/05/01 01:06:24;;;;;;;3.83;3.53;;;8.40;99.90;;;;;;514018;231;27758;-72
2023/05/01 01:08:25;;;;;;;4.93;3.80;;;8.40;99.90;;;;;;514021;231;27891;-72
2023/05/01 01:10:27;;;;;;;4.33;3.93;;;8.40;99.90;;;;;;514023;231;27898;-72
2023/05/01 01:12:28;;;;;;;5.60;3.70;;;8.40;99.90;;;;;;514023;231;27936;-72
2023/05/01 01:14:29;;;;;;;3.83;3.53;;;8.50;99.90;;;;;;513973;231;27946;-73
2023/05/01 01:16:31;;;;;;;4.43;4.03;;;8.40;99.90;;;;;;514017;231;28071;-72
2023/05/01 01:18:32;;;;;;;3.70;3.40;;;8.50;99.90;;;;;;514021;231;28039;-73
2023/05/01 01:20:33;;;;;;;4.27;3.87;;;8.40;99.90;;;;;;514034;231;27806;-72
2023/05/01 01:22:34;;;;;;;3.90;3.60;;;8.30;99.90;;;;;;514027;231;27851;-72
2023/05/01 01:24:35;;;;;;;7.17;4.13;;;8.20;99.90;;;;;;514002;231;27853;-72
2023/05/01 01:26:37;;;;;;;4.07;3.67;;;8.20;99.90;;;;;;514028;231;28020;-72
2023/05/01 01:28:38;;;;;;;4.13;3.73;;;8.20;99.90;;;;;;513996;231;27969;-72
2023/05/01 01:30:39;;;;;;;4.40;4.00;;;8.20;99.90;;;;;;514042;231;28132;-73
2023/05/01 01:32:40;;;;;;;4.00;3.63;;;8.20;99.90;;;;;;514029;231;28008;-72
2023/05/01 01:34:42;;;;;;;3.87;3.57;;;8.10;99.90;;;;;;513942;231;27882;-72
2023/05/01 01:36:43;;;;;;;4.00;3.70;;;8.10;99.90;;;;;;514047;231;27431;-72
2023/05/01 01:38:44;;;;;;;3.30;3.00;;;8.10;99.90;;;;;;514047;231;27875;-72
2023/05/01 01:40:45;;;;;;;4.13;3.47;;;8.10;99.90;;;;;;514052;231;28268;-72
2023/05/01 01:42:47;;;;;;;4.63;3.80;;;8.10;99.90;;;;;;514087;231;28153;-72
2023/05/01 01:44:48;;;;;;;5.20;4.10;;;8.10;99.90;;;;;;513962;231;28308;-72
2023/05/01 01:46:50;;;;;;;5.33;3.90;;;8.00;99.90;;;;;;514035;231;28475;-72
2023/05/01 01:48:50;;;;;;;4.20;3.80;;;8.00;99.90;;;;;;514058;231;28155;-73
2023/05/01 01:50:52;;;;;;;5.53;3.60;;;8.00;99.90;;;;;;514032;231;27809;-73
2023/05/01 01:52:53;;;;;;;4.07;3.53;;;8.00;99.90;;;;;;514036;231;27657;-72
2023/05/01 01:54:54;;;;;;;5.00;4.00;;;8.00;99.90;;;;;;513944;231;27954;-72
2023/05/01 01:56:57;;;;;;;4.03;3.70;;;8.00;99.90;;;;;;513990;231;27769;-72
2023/05/01 01:58:57;;;;;;;7.13;3.77;;;8.00;99.90;;;;;;513931;231;27556;-72
2023/05/01 02:00:58;;;;;;;4.03;3.67;;;8.00;99.90;;;;;;514083;231;27817;-72
2023/05/01 02:02:59;;;;;;;4.23;3.73;;;7.90;99.90;;;;;;514059;231;27820;-72
2023/05/01 02:05:00;;;;;;;3.53;3.23;;;7.90;99.90;;;;;;513908;231;27950;-71
2023/05/01 02:07:02;;;;;;;4.40;3.93;;;8.00;99.90;;;;;;514014;231;27656;-72
2023/05/01 02:09:05;;;;;;;3.50;3.20;;;7.90;99.90;;;;;;514027;231;27920;-72
2023/05/01 02:11:04;;;;;;;3.77;3.40;;;7.90;99.90;;;;;;513949;231;27790;-72
2023/05/01 02:13:06;;;;;;;5.33;4.13;;;7.90;99.90;;;;;;514079;231;27469;-72
2023/05/01 02:15:07;;;;;;;9.60;4.20;;;7.90;99.90;;;;;;514004;231;27774;-71
2023/05/01 02:17:08;;;;;;;3.90;3.53;;;7.90;99.90;;;;;;513987;231;27524;-72
2023/05/01 02:19:09;;;;;;;5.37;3.73;;;7.90;99.90;;;;;;514070;231;28377;-72
2023/05/01 02:21:11;;;;;;;6.33;3.80;;;8.00;99.90;;;;;;514081;231;28425;-72
2023/05/01 02:23:12;;;;;;;3.90;3.60;;;8.00;99.90;;;;;;514067;231;28370;-72
2023/05/01 02:25:13;;;;;;;6.03;3.67;;;8.00;99.90;;;;;;513990;231;28419;-71
2023/05/01 02:27:14;;;;;;;3.30;3.10;;;7.90;99.90;;;;;;514069;231;28262;-72
2023/05/01 02:29:15;;;;;;;3.73;3.43;;;7.90;99.90;;;;;;514083;231;28343;-72
2023/05/01 02:31:17;;;;;;;4.60;3.80;;;7.90;99.90;;;;;;514107;231;27774;-72
2023/05/01 02:33:18;;;;;;;5.10;3.93;;;7.90;99.90;;;;;;514084;231;27797;-72
2023/05/01 02:35:20;;;;;;;4.87;3.80;;;7.90;99.90;;;;;;513950;231;27873;-73
2023/05/01 02:37:20;;;;;;;4.90;3.73;;;7.90;99.90;;;;;;514015;231;27873;-72
2023/05/01 02:39:22;;;;;;;4.57;3.30;;;7.90;99.90;;;;;;514052;231;27830;-72
2023/05/01 02:41:23;;;;;;;4.00;3.60;;;7.90;99.90;;;;;;514076;231;27840;-72
2023/05/01 02:43:25;;;;;;;4.17;3.77;;;7.90;99.90;;;;;;514068;231;27873;-72
2023/05/01 02:45:25;;;;;;;4.13;3.40;;;7.90;99.90;;;;;;513985;231;27848;-72
2023/05/01 02:47:27;;;;;;;5.53;4.10;;;7.90;99.90;;;;;;514046;231;27642;-72
2023/05/01 02:49:28;;;;;;;4.70;3.90;;;7.90;99.90;;;;;;513997;231;27842;-72
2023/05/01 02:51:30;;;;;;;3.80;3.50;;;8.00;99.90;;;;;;514063;231;28247;-72
2023/05/01 02:53:31;;;;;;;3.50;3.30;;;8.00;99.90;;;;;;514012;231;27569;-72
2023/05/01 02:55:31;;;;;;;4.23;3.80;;;8.00;99.90;;;;;;513956;231;27813;-72
2023/05/01 02:57:33;;;;;;;3.93;3.63;;;8.00;99.90;;;;;;514017;231;28177;-72
2023/05/01 02:59:34;;;;;;;3.90;3.60;;;8.00;99.90;;;;;;513972;231;28286;-72
2023/05/01 03:01:35;;;;;;;4.40;3.70;;;8.00;99.90;;;;;;514065;231;28464;-72
2023/05/01 03:03:36;;;;;;;4.20;3.83;;;8.00;99.90;;;;;;514053;231;28114;-72
2023/05/01 03:05:38;;;;;;;5.50;4.30;;;8.00;99.90;;;;;;513994;231;28537;-72
2023/05/01 03:07:39;;;;;;;4.07;3.77;;;8.00;99.90;;;;;;514055;231;28226;-72
2023/05/01 03:09:40;;;;;;;4.30;3.90;;;7.90;99.90;;;;;;514031;231;27857;-72
2023/05/01 03:11:41;;;;;;;3.70;3.40;;;7.90;99.90;;;;;;514049;231;27809;-72
2023/05/01 03:13:43;;;;;;;3.73;3.43;;;7.90;99.90;;;;;;514046;231;27782;-72
2023/05/01 03:15:44;;;;;;;5.10;4.20;;;7.90;99.90;;;;;;513981;231;27893;-72
2023/05/01 03:17:45;;;;;;;4.07;3.67;;;7.90;99.90;;;;;;514006;231;27791;-72
2023/05/01 03:19:48;;;;;;;5.67;3.97;;;7.90;99.90;;;;;;514021;231;27866;-72
2023/05/01 03:21:48;;;;;;;4.40;3.50;;;8.00;99.90;;;;;;513978;231;28227;-72
2023/05/01 03:23:49;;;;;;;8.70;3.90;;;7.90;99.90;;;;;;514033;231;28130;-71
2023/05/01 03:25:50;;;;;;;4.03;3.70;;;7.90;99.90;;;;;;513965;231;27598;-72
2023/05/01 03:27:51;;;;;;;6.43;4.50;;;7.90;99.90;;;;;;513990;231;27961;-72
2023/05/01 03:29:53;;;;;;;4.97;3.30;;;7.90;99.90;;;;;;514015;231;27915;-72
2023/05/01 03:31:56;;;;;;;4.23;3.67;;;8.00;99.90;;;;;;514032;231;27838;-72
2023/05/01 03:33:55;;;;;;;3.90;3.60;;;8.10;99.90;;;;;;513924;231;27684;-72
2023/05/01 03:35:57;;;;;;;3.63;3.43;;;8.10;99.90;;;;;;513983;231;27817;-71
2023/05/01 03:37:58;;;;;;;4.43;4.03;;;8.10;99.90;;;;;;514030;231;28258;-72
2023/05/01 03:39:59;;;;;;;3.80;3.17;;;8.10;99.90;;;;;;514034;231;28468;-72
2023/05/01 03:42:01;;;;;;;3.57;3.30;;;8.10;99.90;;;;;;514076;231;28325;-72
2023/05/01 03:44:01;;;;;;;4.50;3.50;;;8.10;99.90;;;;;;514039;231;28210;-71
2023/05/01 03:46:03;;;;;;;3.57;3.27;;;8.10;99.90;;;;;;513990;231;28517;-72
2023/05/01 03:48:04;;;;;;;3.80;3.50;;;8.10;99.90;;;;;;514027;231;27881;-72
2023/05/01 03:50:05;;;;;;;4.60;4.20;;;8.10;99.90;;;;;;514024;231;27849;-72
2023/05/01 03:52:06;;;;;;;5.00;4.13;;;8.10;99.90;;;;;;514064;231;27707;-72
2023/05/01 03:54:08;;;;;;;4.07;3.67;;;8.00;99.90;;;;;;514049;231;27878;-72
2023/05/01 03:56:09;;;;;;;4.00;3.57;;;8.10;99.90;;;;;;513986;231;28021;-72
2023/05/01 03:58:10;;;;;;;4.90;3.47;;;8.10;99.90;;;;;;514021;231;27437;-72
2023/05/01 04:00:11;;;;;;;4.40;3.97;;;8.20;99.90;;;;;;514012;231;27953;-72
2023/05/01 04:02:13;;;;;;;7.60;3.83;;;8.30;99.90;;;;;;514029;231;27930;-73
2023/05/01 04:04:14;;;;;;;5.20;3.67;;;8.50;99.90;;;;;;514021;231;27462;-71
2023/05/01 04:06:16;;;;;;;5.43;3.43;;;8.50;99.90;;;;;;514026;231;27762;-72
2023/05/01 04:08:16;;;;;;;4.07;3.67;;;8.50;99.90;;;;;;514026;231;27900;-72
2023/05/01 04:10:18;;;;;;;4.50;3.70;;;8.60;99.90;;;;;;514059;231;27899;-72
2023/05/01 04:12:19;;;;;;;4.83;3.47;;;8.60;99.90;;;;;;514087;231;27812;-73
2023/05/01 04:14:20;;;;;;;3.83;3.53;;;8.70;99.90;;;;;;514022;231;27798;-73
2023/05/01 04:16:21;;;;;;;3.60;3.30;;;8.90;99.90;;;;;;514024;231;28435;-72
2023/05/01 04:18:23;;;;;;;6.13;3.70;;;8.80;99.90;;;;;;514018;231;28330;-71
2023/05/01 04:20:24;;;;;;;4.37;3.97;;;8.70;99.90;;;;;;514026;231;28345;-72
2023/05/01 04:22:25;;;;;;;4.30;3.47;;;8.60;99.90;;;;;;514043;231;28460;-74
2023/05/01 04:24:26;;;;;;;5.90;4.30;;;8.50;99.90;;;;;;513997;231;28450;-72
2023/05/01 04:26:28;;;;;;;4.10;3.50;;;8.40;99.90;;;;;;514075;231;27936;-72
2023/05/01 04:28:29;;;;;;;6.43;4.07;;;8.40;99.90;;;;;;514021;231;27871;-72
2023/05/01 04:30:30;;;;;;;3.97;3.57;;;8.30;99.90;;;;;;514066;231;27909;-72
2023/05/01 04:32:31;;;;;;;7.40;4.37;;;8.30;99.90;;;;;;514066;231;27833;-72
2023/05/01 04:34:33;;;;;;;9.30;4.53;;;8.30;99.90;;;;;;514009;231;27819;-72
2023/05/01 04:36:34;;;;;;;11.13;4.43;;;8.50;99.90;;;;;;514040;231;27442;-73
2023/05/01 04:38:36;;;;;;;12.13;5.03;;;8.30;99.90;;;;;;514024;231;27801;-72
2023/05/01 04:40:36;;;;;;;15.20;5.20;;;8.40;99.90;;;;;;514014;231;27867;-72
2023/05/01 04:42:38;;;;;;;20.20;5.23;;;8.50;99.90;;;;;;514042;231;27680;-72
2023/05/01 04:44:39;;;;;;;9.50;4.97;;;8.60;99.90;;;;;;513977;231;27917;-72
2023/05/01 04:46:40;;;;;;;6.30;4.00;;;8.50;99.90;;;;;;514046;231;27920;-72
2023/05/01 04:48:41;;;;;;;7.47;3.70;;;8.60;99.90;;;;;;514039;231;27585;-72
2023/05/01 04:50:43;;;;;;;8.43;3.80;;;8.60;99.90;;;;;;514013;231;28367;-72
2023/05/01 04:52:44;;;;;;;4.33;3.23;;;8.60;99.90;;;;;;514022;231;28673;-72
2023/05/01 04:54:45;;;;;;;4.20;3.23;;;8.70;99.90;;;;;;513971;231;28305;-72
2023/05/01 04:56:46;;;;;;;4.10;3.13;;;8.70;99.90;;;;;;514029;231;28258;-73
2023/05/01 04:58:48;;;;;;;4.47;3.90;;;8.80;99.90;;;;;;513993;231;28280;-71
2023/05/01 05:00:49;;;;;;;3.43;3.17;;;8.80;99.90;;;;;;513978;231;27479;-71
2023/05/01 05:02:50;;;;;;;3.40;3.10;;;8.80;99.90;;;;;;514034;231;27801;-72
2023/05/01 05:04:55;;;;;;;3.43;3.10;;;8.90;99.90;;;;;;513981;231;27914;-72
2023/05/01 05:06:53;;;;;;;3.50;3.30;;;8.90;99.90;;;;;;513796;231;27909;-72
2023/05/01 05:08:54;;;;;;;5.10;3.80;;;9.00;99.90;;;;;;514001;231;27795;-72
2023/05/01 05:10:55;;;;;;;4.63;3.73;;;8.90;99.90;;;;;;513958;231;27799;-72
2023/05/01 05:12:56;;;;;;;4.20;3.50;;;9.00;99.90;;;;;;513996;231;28032;-72
2023/05/01 05:14:58;;;;;;;4.13;3.17;;;9.10;99.90;;;;;;513925;231;27438;-72
2023/05/01 05:16:59;;;;;;;4.30;3.60;;;9.00;99.90;;;;;;514021;231;27836;-72
2023/05/01 05:19:00;;;;;;;4.37;3.40;;;9.10;99.90;;;;;;514020;231;27796;-72
2023/05/01 05:21:01;;;;;;;3.70;3.30;;;9.10;99.90;;;;;;514028;231;28394;-72
2023/05/01 05:23:03;;;;;;;3.77;3.47;;;9.20;99.90;;;;;;514043;231;28274;-72
2023/05/01 05:25:05;;;;;;;3.50;3.20;;;9.20;99.90;;;;;;513980;231;27956;-72
2023/05/01 05:27:06;;;;;;;4.20;3.20;;;9.20;99.90;;;;;;513939;231;27923;-72
2023/05/01 05:29:07;;;;;;;4.00;3.70;;;9.20;99.90;;;;;;513999;231;28196;-72
2023/05/01 05:31:08;;;;;;;5.73;2.97;;;9.30;99.90;;;;;;513998;231;28109;-72
2023/05/01 05:33:09;;;;;;;3.67;3.37;;;9.30;99.90;;;;;;514047;231;28421;-73
2023/05/01 05:35:10;;;;;;;3.40;3.10;;;9.30;99.90;;;;;;513986;231;28433;-72
2023/05/01 05:37:11;;;;;;;4.00;3.60;;;9.40;99.90;;;;;;514019;231;28080;-73
2023/05/01 05:39:13;;;;;;;4.03;3.13;;;9.50;99.90;;;;;;513986;231;27715;-72
2023/05/01 05:41:14;;;;;;;4.07;3.33;;;9.50;99.90;;;;;;514003;231;27598;-72
2023/05/01 05:43:15;;;;;;;3.47;3.20;;;9.60;99.90;;;;;;514062;231;27903;-72
2023/05/01 05:45:16;;;;;;;4.50;3.10;;;9.60;99.90;;;;;;513941;231;27757;-72
2023/05/01 05:47:18;;;;;;;4.67;2.90;;;9.60;99.90;;;;;;514030;231;27770;-72
2023/05/01 05:49:19;;;;;;;3.20;2.90;;;9.70;99.90;;;;;;514011;231;27917;-72
2023/05/01 05:51:20;;;;;;;3.40;3.10;;;9.70;99.90;;;;;;514006;231;27829;-72
2023/05/01 05:53:21;;;;;;;3.63;3.00;;;9.90;99.90;;;;;;514055;231;28182;-73
2023/05/01 05:55:23;;;;;;;4.23;2.90;;;10.00;99.90;;;;;;513962;231;27725;-72
2023/05/01 05:57:24;;;;;;;3.70;3.13;;;10.20;99.90;;;;;;514035;231;28029;-73
2023/05/01 05:59:25;;;;;;;5.13;3.00;;;10.40;99.90;;;;;;513984;231;28148;-72
2023/05/01 06:01:26;;;;;;;3.10;2.90;;;10.60;99.90;;;;;;514027;231;27847;-72
2023/05/01 06:03:28;;;;;;;3.97;3.50;;;10.80;99.90;;;;;;514025;231;28591;-73
2023/05/01 06:05:29;;;;;;;2.83;2.60;;;10.90;99.90;;;;;;513965;231;28596;-72
2023/05/01 06:07:30;;;;;;;3.83;3.00;;;10.90;99.90;;;;;;514022;231;28536;-72
2023/05/01 06:09:32;;;;;;;7.30;2.93;;;10.90;99.90;;;;;;514006;231;28818;-72
2023/05/01 06:11:33;;;;;;;3.30;3.00;;;11.00;99.90;;;;;;514004;231;28332;-72
2023/05/01 06:13:34;;;;;;;2.90;2.70;;;11.00;99.90;;;;;;514024;231;28271;-73
2023/05/01 06:15:35;;;;;;;3.57;3.23;;;11.00;99.90;;;;;;513940;231;28116;-72
2023/05/01 06:17:36;;;;;;;3.10;2.90;;;11.10;99.90;;;;;;514001;231;28074;-73
2023/05/01 06:19:38;;;;;;;3.40;3.00;;;11.10;99.90;;;;;;514001;231;28330;-72
2023/05/01 06:21:39;;;;;;;3.27;3.00;;;11.10;99.90;;;;;;514058;231;27965;-72
2023/05/01 06:23:40;;;;;;;3.00;2.70;;;11.10;99.90;;;;;;514077;231;28751;-73
2023/05/01 06:25:41;;;;;;;2.73;2.50;;;11.10;99.90;;;;;;514025;231;28243;-72
2023/05/01 06:27:43;;;;;;;2.87;2.70;;;11.10;99.90;;;;;;514052;231;28947;-73
2023/05/01 06:29:44;;;;;;;3.33;2.60;;;11.10;99.90;;;;;;514037;231;29530;-72
2023/05/01 06:31:46;;;;;;;3.50;3.20;;;11.20;99.90;;;;;;514080;231;28898;-72
2023/05/01 06:33:46;;;;;;;3.27;2.97;;;11.20;99.90;;;;;;513973;231;28440;-73
2023/05/01 06:35:48;;;;;;;3.40;3.10;;;11.30;99.90;;;;;;514027;231;27878;-72
2023/05/01 06:37:49;;;;;;;4.10;3.30;;;11.50;99.90;;;;;;514067;231;28340;-72
2023/05/01 06:39:50;;;;;;;3.83;3.50;;;11.60;99.90;;;;;;514055;231;27908;-72
2023/05/01 06:41:51;;;;;;;3.97;3.27;;;11.60;99.90;;;;;;514033;231;28653;-73
2023/05/01 06:43:53;;;;;;;3.30;3.10;;;11.70;99.90;;;;;;514042;231;28708;-73
2023/05/01 06:45:54;;;;;;;3.27;2.97;;;11.70;99.90;;;;;;514014;231;28323;-73
2023/05/01 06:47:55;;;;;;;3.93;3.53;;;11.90;99.90;;;;;;514024;231;29200;-72
2023/05/01 06:49:56;;;;;;;4.67;3.40;;;12.00;99.90;;;;;;514008;231;29854;-73
2023/05/01 06:51:58;;;;;;;6.70;3.03;;;12.10;99.90;;;;;;514055;231;28590;-72
2023/05/01 06:53:59;;;;;;;3.73;3.37;;;12.20;99.90;;;;;;514049;231;29232;-73
2023/05/01 06:56:00;;;;;;;3.50;3.20;;;12.30;99.90;;;;;;513966;231;28618;-72
2023/05/01 06:58:03;;;;;;;3.33;3.03;;;12.20;99.90;;;;;;514005;231;28279;-72
2023/05/01 07:00:03;;;;;;;4.40;3.90;;;12.20;99.90;;;;;;513979;231;28054;-72
2023/05/01 07:02:04;;;;;;;3.83;3.53;;;12.10;99.90;;;;;;514061;231;28733;-73
2023/05/01 07:04:06;;;;;;;3.93;3.57;;;12.10;99.90;;;;;;514052;231;28172;-73
2023/05/01 07:06:06;;;;;;;4.00;3.20;;;12.20;99.90;;;;;;514006;231;28014;-73
2023/05/01 07:08:08;;;;;;;4.40;3.50;;;12.20;99.90;;;;;;514047;231;28081;-73
2023/05/01 07:10:09;;;;;;;4.70;3.60;;;12.40;99.90;;;;;;514039;231;28090;-72
2023/05/01 07:12:11;;;;;;;4.27;3.87;;;12.20;99.90;;;;;;514049;231;28579;-72
2023/05/01 07:14:12;;;;;;;3.70;3.30;;;12.20;99.90;;;;;;514028;231;28577;-73
2023/05/01 07:16:13;;;;;;;5.73;4.70;;;12.10;99.90;;;;;;513968;231;28578;-72
2023/05/01 07:18:15;;;;;;;3.43;3.20;;;12.10;99.90;;;;;;514037;231;28091;-73
2023/05/01 07:20:15;;;;;;;5.00;4.50;;;12.20;99.90;;;;;;513930;231;28157;-72
2023/05/01 07:22:17;;;;;;;6.10;3.90;;;12.30;99.90;;;;;;514060;231;28229;-72
2023/05/01 07:24:18;;;;;;;6.63;3.87;;;12.30;99.90;;;;;;514022;231;28245;-73
2023/05/01 07:26:19;;;;;;;7.50;3.30;;;12.40;99.90;;;;;;513997;231;28019;-72
2023/05/01 07:28:21;;;;;;;3.50;3.20;;;12.50;99.90;;;;;;513984;231;28741;-72
2023/05/01 07:30:22;;;;;;;3.60;3.30;;;12.80;99.90;;;;;;514014;231;28306;-71
2023/05/01 07:32:23;;;;;;;3.83;3.20;;;12.80;99.90;;;;;;514059;231;28272;-71
2023/05/01 07:34:24;;;;;;;3.70;3.40;;;12.90;99.90;;;;;;513995;231;28700;-73
2023/05/01 07:36:25;;;;;;;3.40;3.10;;;13.10;99.90;;;;;;514030;231;28518;-73
2023/05/01 07:38:27;;;;;;;4.30;3.90;;;13.20;99.90;;;;;;514029;231;28939;-72
2023/05/01 07:40:28;;;;;;;3.20;2.90;;;13.10;99.90;;;;;;514044;231;28714;-74
2023/05/01 07:42:29;;;;;;;5.07;3.60;;;13.20;99.90;;;;;;514033;231;28097;-73
2023/05/01 07:44:30;;;;;;;4.30;3.90;;;13.20;99.90;;;;;;513978;231;28748;-73
2023/05/01 07:46:33;;;;;;;3.27;2.97;;;13.30;99.90;;;;;;514039;231;28247;-72
2023/05/01 07:48:33;;;;;;;4.00;3.27;;;13.40;99.90;;;;;;513958;231;28576;-73
2023/05/01 07:50:34;;;;;;;4.17;3.77;;;13.40;99.90;;;;;;514065;231;28267;-73
2023/05/01 07:52:36;;;;;;;5.37;4.20;;;13.50;99.90;;;;;;514070;231;28726;-72
2023/05/01 07:54:37;;;;;;;4.10;3.70;;;13.40;99.90;;;;;;513969;231;28398;-73
2023/05/01 07:56:38;;;;;;;4.63;4.13;;;13.50;99.90;;;;;;514025;231;28344;-72
2023/05/01 07:58:41;;;;;;;10.87;3.97;;;13.60;99.90;;;;;;514041;231;28680;-73
2023/05/01 08:00:40;;;;;;;4.03;3.73;;;13.60;99.90;;;;;;513937;231;29024;-73
2023/05/01 08:02:42;;;;;;;4.10;3.80;;;13.70;99.90;;;;;;514090;231;29172;-72
2023/05/01 08:04:44;;;;;;;4.10;3.43;;;13.80;99.90;;;;;;514014;231;29285;-72
2023/05/01 08:06:44;;;;;;;4.23;3.70;;;13.60;99.90;;;;;;513962;231;28650;-73
2023/05/01 08:08:45;;;;;;;3.90;3.60;;;13.80;99.90;;;;;;513992;231;28845;-72
2023/05/01 08:10:47;;;;;;;3.80;3.50;;;14.00;99.90;;;;;;514061;231;28764;-72
2023/05/01 08:12:48;;;;;;;4.67;3.40;;;14.30;99.90;;;;;;514010;231;28643;-73
2023/05/01 08:14:49;;;;;;;5.97;4.00;;;14.30;99.90;;;;;;513978;231;28746;-73
2023/05/01 08:16:54;;;;;;;4.47;4.00;;;14.20;99.90;;;;;;514022;231;28653;-72
2023/05/01 08:18:52;;;;;;;5.03;3.53;;;14.20;99.90;;;;;;513685;231;28756;-72
2023/05/01 08:20:53;;;;;;;7.93;4.13;;;14.20;99.90;;;;;;514036;231;28677;-73
2023/05/01 08:22:54;;;;;;;3.70;3.40;;;14.20;99.90;;;;;;514057;231;29100;-72
2023/05/01 08:24:55;;;;;;;5.43;3.50;;;14.20;99.90;;;;;;513907;231;29220;-73
2023/05/01 08:26:57;;;;;;;4.20;3.70;;;14.20;99.90;;;;;;514010;231;29102;-71
2023/05/01 08:28:58;;;;;;;4.83;3.07;;;14.30;99.90;;;;;;514017;231;29154;-73
2023/05/01 08:30:59;;;;;;;3.73;3.30;;;14.30;99.90;;;;;;514005;231;28658;-72
2023/05/01 08:33:00;;;;;;;4.10;3.70;;;14.50;99.90;;;;;;514031;231;28655;-72
2023/05/01 08:35:02;;;;;;;3.63;3.00;;;14.50;99.90;;;;;;513979;231;28678;-72
2023/05/01 08:37:03;;;;;;;4.40;3.23;;;14.50;99.90;;;;;;513999;231;28676;-73
2023/05/01 08:39:04;;;;;;;4.03;3.63;;;14.40;99.90;;;;;;513997;231;28674;-72
2023/05/01 08:41:05;;;;;;;4.07;3.30;;;14.30;99.90;;;;;;513990;231;28729;-71
2023/05/01 08:43:07;;;;;;;3.33;3.00;;;14.40;99.90;;;;;;514040;231;28713;-72
2023/05/01 08:45:08;;;;;;;3.30;3.00;;;14.60;99.90;;;;;;513964;231;28670;-73
2023/05/01 08:47:09;;;;;;;4.80;3.40;;;14.70;99.90;;;;;;514027;231;29266;-73
2023/05/01 08:49:10;;;;;;;4.37;3.20;;;14.70;99.90;;;;;;514009;231;29318;-73
2023/05/01 08:51:12;;;;;;;3.30;3.10;;;14.70;99.90;;;;;;514026;231;29978;-73
2023/05/01 08:53:13;;;;;;;4.00;3.30;;;14.70;99.90;;;;;;514055;231;29146;-72
2023/05/01 08:55:14;;;;;;;3.33;3.03;;;14.80;99.90;;;;;;513961;231;28737;-73
2023/05/01 08:57:15;;;;;;;5.10;3.07;;;14.80;99.90;;;;;;513989;231;28635;-72
2023/05/01 08:59:17;;;;;;;3.30;3.00;;;14.70;99.90;;;;;;514028;231;28862;-72
2023/05/01 09:01:18;;;;;;;3.30;3.10;;;14.80;99.90;;;;;;514040;231;28658;-73
2023/05/01 09:03:19;;;;;;;3.30;3.10;;;14.80;99.90;;;;;;514056;231;28660;-72
2023/05/01 09:05:20;;;;;;;3.17;2.97;;;14.80;99.90;;;;;;513967;231;28816;-72
2023/05/01 09:07:22;;;;;;;3.17;2.97;;;14.90;99.90;;;;;;513985;231;28637;-72
2023/05/01 09:09:23;;;;;;;3.70;3.40;;;15.10;99.90;;;;;;514025;231;28861;-72
2023/05/01 09:11:24;;;;;;;3.33;3.03;;;15.20;99.90;;;;;;514032;231;29174;-74
2023/05/01 09:13:25;;;;;;;3.00;2.80;;;15.40;99.90;;;;;;514043;231;29103;-72
2023/05/01 09:15:27;;;;;;;4.10;3.33;;;15.50;99.90;;;;;;513970;231;29234;-73
2023/05/01 09:17:30;;;;;;;4.20;3.47;;;15.50;99.90;;;;;;514036;231;29122;-73
2023/05/01 09:19:29;;;;;;;3.23;3.03;;;15.50;99.90;;;;;;513888;231;28753;-72
2023/05/01 09:21:30;;;;;;;4.23;3.23;;;15.60;99.90;;;;;;514083;231;28657;-73
2023/05/01 09:23:32;;;;;;;3.40;3.10;;;15.70;99.90;;;;;;514058;231;28626;-72
2023/05/01 09:25:33;;;;;;;3.50;2.80;;;16.00;99.90;;;;;;513987;231;28673;-73
2023/05/01 09:27:34;;;;;;;4.00;3.27;;;16.20;99.90;;;;;;514052;231;28630;-72
2023/05/01 09:29:35;;;;;;;3.90;3.23;;;16.10;99.90;;;;;;514044;231;28758;-73
2023/05/01 09:31:37;;;;;;;3.30;3.00;;;16.20;99.90;;;;;;514050;231;28714;-72
2023/05/01 09:33:38;;;;;;;2.93;2.73;;;16.30;99.90;;;;;;514028;231;28748;-72
2023/05/01 09:35:39;;;;;;;3.57;3.27;;;16.50;99.90;;;;;;513914;231;28765;-73
2023/05/01 09:37:40;;;;;;;3.37;2.93;;;16.60;99.90;;;;;;513938;231;29091;-72
2023/05/01 09:39:42;;;;;;;4.00;3.07;;;16.60;99.90;;;;;;513975;231;29212;-72
2023/05/01 09:41:43;;;;;;;3.57;3.20;;;16.60;99.90;;;;;;513943;231;29184;-74
2023/05/01 09:43:44;;;;;;;6.10;5.50;;;16.60;99.30;;;;;;514031;231;28631;-73
2023/05/01 09:45:45;;;;;;;4.00;3.70;;;16.40;99.30;;;;;;513835;231;28811;-72
2023/05/01 09:47:47;;;;;;;4.20;3.63;;;16.20;97.70;;;;;;513990;231;28634;-72
2023/05/01 09:49:48;;;;;;;3.50;3.20;;;16.50;98.00;;;;;;513975;231;28673;-73
2023/05/01 09:51:49;;;;;;;4.23;2.80;;;16.80;97.70;;;;;;514044;231;28658;-73
2023/05/01 09:53:51;;;;;;;3.00;2.80;;;16.90;97.10;;;;;;514010;231;28629;-73
2023/05/01 09:55:52;;;;;;;3.47;3.00;;;17.10;98.80;;;;;;513958;231;28769;-73
2023/05/01 09:57:53;;;;;;;3.33;3.00;;;17.20;97.00;;;;;;514037;231;28763;-72
2023/05/01 09:59:54;;;;;;;3.10;2.90;;;17.20;96.30;;;;;;514012;231;28771;-72
2023/05/01 10:01:55;;;;;;;4.23;3.10;;;17.20;96.60;;;;;;514057;231;29169;-73
2023/05/01 10:03:57;;;;;;;3.13;2.87;;;17.00;96.50;;;;;;514032;231;29916;-73
2023/05/01 10:06:00;;;;;;;4.73;2.60;;;17.00;95.90;;;;;;514002;231;29195;-73
2023/05/01 10:07:59;;;;;;;3.20;2.90;;;17.00;95.00;;;;;;513878;231;28697;-72
2023/05/01 10:10:00;;;;;;;3.27;2.90;;;17.30;95.70;;;;;;514008;231;28755;-72
2023/05/01 10:12:02;;;;;;;3.00;2.80;;;17.60;96.20;;;;;;514059;231;28772;-73
2023/05/01 10:14:03;;;;;;;3.40;3.10;;;17.80;94.50;;;;;;514040;231;28661;-73
2023/05/01 10:16:06;;;;;;;5.20;3.17;;;17.90;94.80;;;;;;513989;231;28755;-74
2023/05/01 10:18:05;;;;;;;2.93;2.73;;;18.00;94.20;;;;;;513885;231;28704;-73
2023/05/01 10:20:07;;;;;;;3.83;3.33;;;17.90;93.90;;;;;;514041;231;28675;-72
2023/05/01 10:22:08;;;;;;;6.23;3.30;;;17.80;94.60;;;;;;514058;231;28685;-73
2023/05/01 10:24:09;;;;;;;5.93;2.67;;;17.80;93.70;;;;;;514019;231;28654;-73
2023/05/01 10:26:10;;;;;;;3.00;2.80;;;17.70;94.60;;;;;;513995;231;29217;-73
2023/05/01 10:28:12;;;;;;;3.23;2.93;;;17.50;95.60;;;;;;514040;231;29079;-72
2023/05/01 10:30:13;;;;;;;3.50;3.20;;;17.50;95.20;;;;;;514021;231;29166;-73
2023/05/01 10:32:14;;;;;;;3.77;3.40;;;17.50;95.70;;;;;;514048;231;28694;-73
2023/05/01 10:34:15;;;;;;;3.90;3.50;;;17.50;95.70;;;;;;513989;231;28666;-73
2023/05/01 10:36:17;;;;;;;3.43;3.13;;;17.50;95.60;;;;;;514000;231;28678;-73